Napoleon, Ohio
Current Conditions -  °F | °C
As of 4:15 PM on Tuesday 27 Jan 2015 (Local Time) from KUSE Reporting Station
Clear Clear  
Wind Chill: 16°   Ceiling: Unl
Heat Index: 27°   Visibility: 10mi
Dew Point: 12°   Wind: 12mph
Humidity: 55%   Direction: 330°NNW
Pressure: 30.14"   Gusts: NA
Location:  41.39°N, 84.12°W
Report Text: KUSE 272115Z AUTO 33010KT 10SM CLR M03/M11 A3014 RMK AO2
Loading
Personal Weather Stations






























Interactive Weather Map New forecast layout! Learn more

10-Day Weather Forecast

Advertisements
Track Severe Weather on mobile